createdAt,value
2023-01-23T00:22:26.941Z,21.55
2023-01-23T00:24:53.442Z,25.98
2023-01-23T00:27:19.958Z,21.90
2023-01-23T00:29:47.456Z,21.20
2023-01-23T00:32:13.974Z,22.85
2023-01-23T00:34:40.508Z,18.45
2023-01-23T00:37:07.091Z,18.20
2023-01-23T00:39:33.620Z,17.27
2023-01-23T00:42:00.164Z,24.75
2023-01-23T00:44:26.722Z,18.35
2023-01-23T00:46:53.587Z,22.65
2023-01-23T00:49:20.202Z,22.25
2023-01-23T00:51:46.927Z,19.00
2023-01-23T00:54:13.580Z,20.48
2023-01-23T00:56:40.087Z,21.63
2023-01-23T00:59:07.083Z,15.23
2023-01-23T01:01:33.927Z,17.15
2023-01-23T01:04:00.829Z,20.52
2023-01-23T01:06:27.489Z,15.95
2023-01-23T01:08:53.993Z,18.70
2023-01-23T01:11:20.539Z,19.17
2023-01-23T01:13:47.209Z,23.13
2023-01-23T01:16:13.877Z,25.45
2023-01-23T01:18:40.756Z,23.35
2023-01-23T01:21:09.660Z,25.63
2023-01-23T01:23:37.003Z,25.00
2023-01-23T01:26:04.473Z,19.85
2023-01-23T01:28:33.221Z,18.63
2023-01-23T01:31:06.396Z,23.35
2023-01-23T01:33:34.570Z,23.13
2023-01-23T01:36:01.886Z,21.17
2023-01-23T01:38:28.742Z,16.70
2023-01-23T01:40:57.291Z,20.77
2023-01-23T01:43:26.141Z,16.60
2023-01-23T01:46:07.768Z,18.25
2023-01-23T01:48:45.696Z,17.13
2023-01-23T01:51:27.476Z,20.77
2023-01-23T01:54:02.852Z,22.08
2023-01-23T01:56:32.763Z,23.00
2023-01-23T01:59:00.700Z,15.88
2023-01-23T02:01:27.324Z,20.50
2023-01-23T02:03:55.076Z,25.80
2023-01-23T02:06:21.757Z,26.27
2023-01-23T02:08:58.136Z,19.27
2023-01-23T02:11:24.823Z,15.43
2023-01-23T02:13:53.547Z,19.48
2023-01-23T02:16:23.568Z,17.27
2023-01-23T02:18:54.197Z,20.70
2023-01-23T02:24:09.562Z,21.58
2023-01-23T02:26:40.352Z,18.65
2023-01-23T02:29:07.844Z,17.75
2023-01-23T02:31:35.430Z,11.23
2023-01-23T02:34:02.043Z,13.18
2023-01-23T02:36:32.561Z,11.50
2023-01-23T02:39:14.945Z,13.38
2023-01-23T02:41:46.503Z,12.45
2023-01-23T02:44:25.151Z,14.15
2023-01-23T02:46:52.189Z,12.23
2023-01-23T02:49:18.769Z,10.52
2023-01-23T02:51:45.490Z,13.77
2023-01-23T02:54:12.042Z,14.20
2023-01-23T02:56:38.807Z,13.93
2023-01-23T02:59:23.797Z,12.75
2023-01-23T03:01:51.313Z,12.38
2023-01-23T03:04:17.874Z,14.30
2023-01-23T03:06:44.470Z,11.07
2023-01-23T03:09:14.099Z,11.70
2023-01-23T03:11:41.798Z,10.70
2023-01-23T03:14:12.621Z,13.27
2023-01-23T03:16:40.835Z,10.60
2023-01-23T03:19:09.365Z,12.23
2023-01-23T03:21:40.463Z,12.75
2023-01-23T03:24:09.069Z,11.70
2023-01-23T03:26:38.689Z,16.35
2023-01-23T03:29:24.299Z,14.73
2023-01-23T03:31:50.896Z,14.07
2023-01-23T03:34:22.171Z,13.80
2023-01-23T03:36:48.844Z,14.65
2023-01-23T03:39:33.869Z,12.00
2023-01-23T03:42:00.428Z,11.35
2023-01-23T03:44:26.944Z,13.70
2023-01-23T03:46:53.548Z,12.55
2023-01-23T03:49:20.259Z,16.52
2023-01-23T03:51:46.801Z,13.50
2023-01-23T03:54:14.793Z,14.80
2023-01-23T03:56:42.403Z,12.45
2023-01-23T03:59:09.475Z,16.27
2023-01-23T04:01:36.855Z,12.00
2023-01-23T04:04:03.968Z,12.43
2023-01-23T04:06:30.851Z,18.42
2023-01-23T04:08:58.295Z,16.65
2023-01-23T04:11:26.523Z,14.45
2023-01-23T04:13:54.363Z,12.35
2023-01-23T04:16:24.264Z,16.35
2023-01-23T04:18:51.593Z,10.52
2023-01-23T04:21:18.388Z,13.55
2023-01-23T04:23:44.947Z,13.07
2023-01-23T04:26:12.067Z,13.48
2023-01-23T04:28:38.641Z,13.23
2023-01-23T04:31:05.641Z,12.25
2023-01-23T04:33:32.407Z,13.63
2023-01-23T04:36:01.871Z,13.30
2023-01-23T04:38:30.271Z,13.02
2023-01-23T04:40:57.005Z,13.95
2023-01-23T04:43:24.006Z,10.10
2023-01-23T04:45:52.492Z,10.05
2023-01-23T04:48:19.501Z,9.20
2023-01-23T04:50:46.055Z,12.13
2023-01-23T04:53:14.011Z,12.90
2023-01-23T04:55:40.766Z,9.80
2023-01-23T04:58:07.396Z,7.07
2023-01-23T05:00:33.936Z,8.90
2023-01-23T05:03:01.220Z,7.60
2023-01-23T05:05:27.743Z,8.52
2023-01-23T05:07:54.282Z,8.93
2023-01-23T05:10:21.196Z,9.43
2023-01-23T05:12:47.876Z,8.48
2023-01-23T05:15:14.491Z,10.13
2023-01-23T05:17:41.176Z,9.70
2023-01-23T05:20:08.426Z,8.65
2023-01-23T05:22:35.010Z,7.72
2023-01-23T05:25:01.647Z,14.38
2023-01-23T05:27:28.220Z,7.97
2023-01-23T05:29:54.799Z,8.45
2023-01-23T05:32:21.461Z,8.95
2023-01-23T05:34:48.022Z,7.18
2023-01-23T05:37:14.597Z,6.78
2023-01-23T05:39:41.139Z,8.05
2023-01-23T05:42:07.724Z,8.30
2023-01-23T05:44:34.657Z,8.02
2023-01-23T05:47:01.341Z,6.50
2023-01-23T05:49:27.881Z,10.43
2023-01-23T05:51:54.429Z,10.30
2023-01-23T05:54:21.002Z,8.18
2023-01-23T05:56:47.571Z,11.60
2023-01-23T05:59:14.156Z,8.82
2023-01-23T06:01:40.732Z,9.23
2023-01-23T06:04:07.282Z,7.43
2023-01-23T06:06:33.807Z,9.32
2023-01-23T06:09:00.630Z,11.25
2023-01-23T06:11:27.222Z,8.13
2023-01-23T12:29:54.015Z,8.52
2023-01-23T12:32:29.748Z,7.85
2023-01-23T12:35:21.622Z,9.48
2023-01-23T12:38:05.635Z,8.35
2023-01-23T12:40:36.659Z,6.32
2023-01-23T12:43:11.596Z,5.88
2023-01-23T12:45:46.664Z,6.55
2023-01-23T12:48:15.909Z,7.90
2023-01-23T12:50:51.284Z,5.25
2023-01-23T12:53:22.916Z,7.15
2023-01-23T12:56:01.433Z,7.25
2023-01-23T12:58:31.457Z,4.35
2023-01-23T13:01:21.711Z,8.18
2023-01-23T13:04:19.480Z,7.88
2023-01-23T13:07:05.318Z,6.10
2023-01-23T13:09:45.360Z,7.60
2023-01-23T13:12:23.841Z,6.85
2023-01-23T13:15:30.868Z,7.70
2023-01-23T13:18:02.399Z,13.10
2023-01-23T13:20:50.966Z,12.98
2023-01-23T13:23:29.466Z,8.75
2023-01-23T13:26:22.832Z,7.22
2023-01-23T13:28:54.763Z,7.13
2023-01-23T13:31:33.939Z,11.10
2023-01-23T13:34:30.121Z,7.72
2023-01-23T13:37:47.414Z,8.55
2023-01-23T13:40:20.421Z,9.23
2023-01-23T13:42:47.252Z,9.07
2023-01-23T18:08:32.788Z,20.75
2023-01-23T18:11:01.141Z,22.42
2023-01-23T18:13:27.764Z,16.58
2023-01-23T18:16:22.390Z,18.17
2023-01-23T18:18:57.587Z,12.93
2023-01-23T18:21:24.523Z,27.90
2023-01-23T18:23:51.605Z,16.38
2023-01-23T18:26:42.748Z,21.65
2023-01-23T18:29:33.874Z,23.40
2023-01-23T18:32:25.290Z,19.83
2023-01-23T18:35:16.215Z,20.42
2023-01-23T18:37:58.451Z,14.05
2023-01-23T18:40:31.339Z,14.10
2023-01-23T18:43:16.394Z,15.20
2023-01-23T18:45:43.376Z,17.92
2023-01-23T18:48:25.041Z,12.45
2023-01-23T18:51:09.437Z,15.15
2023-01-23T18:54:12.235Z,15.23
2023-01-23T18:57:03.034Z,19.15
2023-01-23T18:59:35.449Z,13.52
2023-01-23T19:02:26.247Z,12.93
2023-01-23T19:05:10.341Z,16.60
2023-01-23T19:07:38.076Z,17.85
2023-01-23T19:10:24.929Z,15.25
2023-01-23T19:13:10.162Z,13.85
2023-01-23T19:15:51.852Z,15.55
2023-01-23T19:18:39.357Z,16.85
2023-01-23T19:21:23.108Z,14.85
2023-01-23T19:24:10.060Z,17.35
2023-01-23T19:26:42.112Z,15.43
2023-01-23T19:29:21.098Z,21.65
2023-01-23T19:32:03.480Z,20.38
2023-01-23T19:34:30.644Z,22.65
2023-01-23T19:36:57.411Z,12.52
2023-01-23T19:39:24.121Z,13.20
2023-01-23T19:41:51.959Z,15.80
2023-01-23T19:44:20.810Z,16.30
2023-01-23T19:46:47.910Z,18.88
2023-01-23T19:49:14.599Z,14.00
2023-01-23T19:51:42.035Z,17.42
2023-01-23T19:54:12.714Z,19.27
2023-01-23T19:56:40.020Z,22.45
2023-01-23T19:59:07.835Z,17.65
2023-01-23T20:01:43.636Z,20.98
2023-01-23T20:06:52.180Z,14.93
2023-01-23T20:09:19.782Z,15.52
2023-01-23T20:11:46.665Z,18.38
2023-01-23T20:14:13.689Z,22.35
2023-01-23T20:16:42.964Z,12.65
2023-01-23T20:19:14.778Z,20.80
2023-01-23T20:21:41.820Z,16.60
2023-01-23T20:24:08.820Z,19.15
2023-01-23T20:26:36.620Z,15.68
2023-01-23T20:29:04.410Z,15.07
2023-01-23T20:31:32.153Z,17.23
2023-01-23T20:33:59.083Z,17.90
2023-01-23T20:36:25.824Z,16.42
2023-01-23T20:38:52.671Z,19.45
2023-01-23T20:41:20.632Z,16.58
2023-01-23T20:43:48.510Z,15.00
2023-01-23T20:46:16.386Z,28.15
2023-01-23T20:48:44.649Z,13.18
2023-01-23T20:51:12.744Z,14.70
2023-01-23T20:53:40.114Z,16.00
2023-01-23T20:56:08.477Z,16.17
2023-01-23T20:58:55.255Z,17.90
2023-01-23T21:01:24.903Z,15.73
2023-01-23T21:03:51.822Z,13.45
2023-01-23T21:06:19.272Z,14.48
2023-01-23T21:08:47.353Z,14.57
2023-01-23T21:11:16.645Z,15.55
2023-01-23T21:13:44.298Z,25.98
2023-01-23T21:16:15.836Z,18.88
2023-01-23T21:18:46.233Z,13.70
2023-01-23T21:21:16.873Z,15.27
2023-01-23T21:23:46.607Z,16.67
2023-01-23T21:26:13.220Z,16.38
2023-01-23T21:28:39.804Z,19.25
2023-01-23T21:31:14.944Z,17.33
2023-01-23T21:33:44.180Z,12.43
2023-01-23T21:36:13.311Z,18.98
